sensor_id;sensor_type;location;lat;lon;timestamp;pressure;altitude;pressure_sealevel;temperature;humidity
30339;BME280;795;49.296;11.348;2023-02-19T00:02:08;96703.47;;;7.98;100.00
30339;BME280;795;49.296;11.348;2023-02-19T00:04:35;96725.25;;;8.03;100.00
30339;BME280;795;49.296;11.348;2023-02-19T00:07:02;96718.38;;;8.00;100.00
30339;BME280;795;49.296;11.348;2023-02-19T00:09:29;96700.25;;;7.85;100.00
30339;BME280;795;49.296;11.348;2023-02-19T00:11:55;96686.09;;;7.75;100.00
30339;BME280;795;49.296;11.348;2023-02-19T00:14:22;96698.34;;;7.68;100.00
30339;BME280;795;49.296;11.348;2023-02-19T00:16:49;96729.53;;;7.86;100.00
30339;BME280;795;49.296;11.348;2023-02-19T00:19:19;96710.41;;;7.81;100.00
30339;BME280;795;49.296;11.348;2023-02-19T00:21:50;96722.06;;;7.90;100.00
30339;BME280;795;49.296;11.348;2023-02-19T00:24:20;96711.00;;;7.66;100.00
30339;BME280;795;49.296;11.348;2023-02-19T00:26:47;96720.56;;;7.59;100.00
30339;BME280;795;49.296;11.348;2023-02-19T00:29:20;96726.50;;;7.62;100.00
30339;BME280;795;49.296;11.348;2023-02-19T00:31:47;96720.31;;;7.52;100.00
30339;BME280;795;49.296;11.348;2023-02-19T00:34:14;96747.72;;;7.64;100.00
30339;BME280;795;49.296;11.348;2023-02-19T00:36:42;96736.91;;;7.46;100.00
30339;BME280;795;49.296;11.348;2023-02-19T00:39:14;96765.88;;;7.60;100.00
30339;BME280;795;49.296;11.348;2023-02-19T00:41:43;96781.19;;;7.58;100.00
30339;BME280;795;49.296;11.348;2023-02-19T00:44:13;96759.69;;;7.50;100.00
30339;BME280;795;49.296;11.348;2023-02-19T00:46:45;96745.22;;;7.43;100.00
30339;BME280;795;49.296;11.348;2023-02-19T00:49:21;96779.63;;;7.56;100.00
30339;BME280;795;49.296;11.348;2023-02-19T00:51:51;96744.78;;;7.38;100.00
30339;BME280;795;49.296;11.348;2023-02-19T00:54:20;96779.09;;;7.52;100.00
30339;BME280;795;49.296;11.348;2023-02-19T00:56:49;96766.28;;;7.46;100.00
30339;BME280;795;49.296;11.348;2023-02-19T00:59:16;96748.31;;;7.29;100.00
30339;BME280;795;49.296;11.348;2023-02-19T01:01:44;96758.00;;;7.40;100.00
30339;BME280;795;49.296;11.348;2023-02-19T01:04:11;96756.34;;;7.39;100.00
30339;BME280;795;49.296;11.348;2023-02-19T01:06:39;96754.78;;;7.36;100.00
30339;BME280;795;49.296;11.348;2023-02-19T01:09:07;96774.28;;;7.46;100.00
30339;BME280;795;49.296;11.348;2023-02-19T01:11:34;96748.00;;;7.32;100.00
30339;BME280;795;49.296;11.348;2023-02-19T01:14:02;96762.91;;;7.44;100.00
30339;BME280;795;49.296;11.348;2023-02-19T01:16:30;96734.94;;;7.19;100.00
30339;BME280;795;49.296;11.348;2023-02-19T01:18:58;96755.47;;;7.38;100.00
30339;BME280;795;49.296;11.348;2023-02-19T01:21:28;96754.34;;;7.41;100.00
30339;BME280;795;49.296;11.348;2023-02-19T01:23:56;96682.97;;;7.14;100.00
30339;BME280;795;49.296;11.348;2023-02-19T01:26:29;96728.19;;;7.34;100.00
30339;BME280;795;49.296;11.348;2023-02-19T01:28:58;96735.50;;;7.32;100.00
30339;BME280;795;49.296;11.348;2023-02-19T01:31:26;96706.41;;;7.20;100.00
30339;BME280;795;49.296;11.348;2023-02-19T01:33:59;96738.59;;;7.28;100.00
30339;BME280;795;49.296;11.348;2023-02-19T01:36:30;96682.97;;;7.04;100.00
30339;BME280;795;49.296;11.348;2023-02-19T01:39:01;96709.09;;;7.20;100.00
30339;BME280;795;49.296;11.348;2023-02-19T01:41:35;96697.16;;;7.14;100.00
30339;BME280;795;49.296;11.348;2023-02-19T01:46:54;96682.13;;;7.13;100.00
30339;BME280;795;49.296;11.348;2023-02-19T01:49:53;96704.59;;;7.30;100.00
30339;BME280;795;49.296;11.348;2023-02-19T01:52:34;96685.22;;;7.18;100.00
30339;BME280;795;49.296;11.348;2023-02-19T01:55:10;96695.31;;;7.34;100.00
30339;BME280;795;49.296;11.348;2023-02-19T01:57:45;96680.84;;;7.27;100.00
30339;BME280;795;49.296;11.348;2023-02-19T02:00:17;96688.72;;;7.38;100.00
30339;BME280;795;49.296;11.348;2023-02-19T02:02:51;96688.28;;;7.33;100.00
30339;BME280;795;49.296;11.348;2023-02-19T02:05:39;96676.47;;;7.35;100.00
30339;BME280;795;49.296;11.348;2023-02-19T02:08:13;96673.25;;;7.32;100.00
30339;BME280;795;49.296;11.348;2023-02-19T02:10:59;96654.44;;;7.24;100.00
30339;BME280;795;49.296;11.348;2023-02-19T02:13:27;96665.38;;;7.30;100.00
30339;BME280;795;49.296;11.348;2023-02-19T02:19:48;96669.84;;;7.40;100.00
30339;BME280;795;49.296;11.348;2023-02-19T02:22:33;96670.56;;;7.42;100.00
30339;BME280;795;49.296;11.348;2023-02-19T02:28:50;96668.03;;;7.40;100.00
30339;BME280;795;49.296;11.348;2023-02-19T02:31:41;96652.31;;;7.27;100.00
30339;BME280;795;49.296;11.348;2023-02-19T02:34:58;96651.59;;;7.35;100.00
30339;BME280;795;49.296;11.348;2023-02-19T02:37:34;96666.34;;;7.39;100.00
30339;BME280;795;49.296;11.348;2023-02-19T02:40:06;96675.06;;;7.41;100.00
30339;BME280;795;49.296;11.348;2023-02-19T02:42:38;96664.41;;;7.41;100.00
30339;BME280;795;49.296;11.348;2023-02-19T02:51:22;96662.69;;;7.40;100.00
30339;BME280;795;49.296;11.348;2023-02-19T02:54:30;96626.28;;;7.29;100.00
30339;BME280;795;49.296;11.348;2023-02-19T02:57:19;96641.34;;;7.30;100.00
30339;BME280;795;49.296;11.348;2023-02-19T02:59:47;96627.84;;;7.22;100.00
30339;BME280;795;49.296;11.348;2023-02-19T03:02:27;96624.47;;;7.30;100.00
30339;BME280;795;49.296;11.348;2023-02-19T03:05:18;96638.81;;;7.39;100.00
30339;BME280;795;49.296;11.348;2023-02-19T03:11:18;96634.88;;;7.33;100.00
30339;BME280;795;49.296;11.348;2023-02-19T03:14:24;96636.84;;;7.31;100.00
30339;BME280;795;49.296;11.348;2023-02-19T03:17:22;96657.91;;;7.34;100.00
30339;BME280;795;49.296;11.348;2023-02-19T03:20:16;96640.09;;;7.25;100.00
30339;BME280;795;49.296;11.348;2023-02-19T03:22:50;96638.97;;;7.27;100.00
30339;BME280;795;49.296;11.348;2023-02-19T03:25:25;96646.41;;;7.33;100.00
30339;BME280;795;49.296;11.348;2023-02-19T03:28:15;96639.09;;;7.35;100.00
30339;BME280;795;49.296;11.348;2023-02-19T03:30:53;96627.59;;;7.25;100.00
30339;BME280;795;49.296;11.348;2023-02-19T03:33:27;96639.53;;;7.31;100.00
30339;BME280;795;49.296;11.348;2023-02-19T03:36:01;96634.59;;;7.36;100.00
30339;BME280;795;49.296;11.348;2023-02-19T03:38:43;96625.88;;;7.34;100.00
30339;BME280;795;49.296;11.348;2023-02-19T03:41:42;96626.03;;;7.32;100.00
30339;BME280;795;49.296;11.348;2023-02-19T03:45:01;96635.16;;;7.30;100.00
30339;BME280;795;49.296;11.348;2023-02-19T03:51:01;96628.84;;;7.31;100.00
30339;BME280;795;49.296;11.348;2023-02-19T03:54:34;96618.88;;;7.23;100.00
30339;BME280;795;49.296;11.348;2023-02-19T03:57:38;96624.63;;;7.28;100.00
30339;BME280;795;49.296;11.348;2023-02-19T04:00:22;96603.97;;;7.21;100.00
30339;BME280;795;49.296;11.348;2023-02-19T04:03:14;96602.44;;;7.18;100.00
30339;BME280;795;49.296;11.348;2023-02-19T04:05:51;96596.81;;;7.21;100.00
30339;BME280;795;49.296;11.348;2023-02-19T04:08:23;96572.25;;;7.08;100.00
30339;BME280;795;49.296;11.348;2023-02-19T04:10:54;96571.97;;;7.11;100.00
30339;BME280;795;49.296;11.348;2023-02-19T04:13:44;96602.97;;;7.22;100.00
30339;BME280;795;49.296;11.348;2023-02-19T04:16:22;96592.31;;;7.22;100.00
30339;BME280;795;49.296;11.348;2023-02-19T04:18:57;96588.25;;;7.18;100.00
30339;BME280;795;49.296;11.348;2023-02-19T04:21:29;96616.63;;;7.28;100.00
30339;BME280;795;49.296;11.348;2023-02-19T04:24:08;96575.75;;;7.09;100.00
30339;BME280;795;49.296;11.348;2023-02-19T04:26:39;96621.97;;;7.28;100.00
30339;BME280;795;49.296;11.348;2023-02-19T04:29:06;96612.41;;;7.26;100.00
30339;BME280;795;49.296;11.348;2023-02-19T04:31:35;96601.63;;;7.08;100.00
30339;BME280;795;49.296;11.348;2023-02-19T04:34:04;96581.53;;;7.04;100.00
30339;BME280;795;49.296;11.348;2023-02-19T04:36:32;96603.00;;;7.12;100.00
30339;BME280;795;49.296;11.348;2023-02-19T04:38:59;96589.81;;;7.11;100.00
30339;BME280;795;49.296;11.348;2023-02-19T04:41:26;96618.31;;;7.20;100.00
30339;BME280;795;49.296;11.348;2023-02-19T04:43:53;96604.28;;;7.08;100.00
30339;BME280;795;49.296;11.348;2023-02-19T04:46:20;96629.56;;;7.23;100.00
30339;BME280;795;49.296;11.348;2023-02-19T04:48:47;96598.81;;;7.00;100.00
30339;BME280;795;49.296;11.348;2023-02-19T04:51:16;96631.41;;;7.13;100.00
30339;BME280;795;49.296;11.348;2023-02-19T04:53:43;96626.06;;;7.13;100.00
30339;BME280;795;49.296;11.348;2023-02-19T04:56:14;96646.28;;;7.16;100.00
30339;BME280;795;49.296;11.348;2023-02-19T04:58:43;96616.78;;;6.98;100.00
30339;BME280;795;49.296;11.348;2023-02-19T05:01:11;96625.50;;;7.00;100.00
30339;BME280;795;49.296;11.348;2023-02-19T05:03:39;96582.53;;;6.75;100.00
30339;BME280;795;49.296;11.348;2023-02-19T05:06:12;96599.50;;;6.93;100.00
30339;BME280;795;49.296;11.348;2023-02-19T05:08:40;96636.75;;;7.04;100.00
30339;BME280;795;49.296;11.348;2023-02-19T05:11:10;96645.59;;;7.04;100.00
30339;BME280;795;49.296;11.348;2023-02-19T05:13:39;96643.03;;;7.12;100.00
30339;BME280;795;49.296;11.348;2023-02-19T05:16:14;96629.16;;;6.99;100.00
30339;BME280;795;49.296;11.348;2023-02-19T05:18:45;96625.81;;;6.97;100.00
30339;BME280;795;49.296;11.348;2023-02-19T05:21:14;96624.09;;;6.96;100.00
30339;BME280;795;49.296;11.348;2023-02-19T05:23:42;96651.47;;;7.08;100.00
30339;BME280;795;49.296;11.348;2023-02-19T05:26:21;96649.66;;;7.08;100.00
30339;BME280;795;49.296;11.348;2023-02-19T05:28:52;96584.66;;;7.00;100.00
30339;BME280;795;49.296;11.348;2023-02-19T05:31:21;96614.41;;;6.86;100.00
30339;BME280;795;49.296;11.348;2023-02-19T05:33:48;96634.94;;;7.04;100.00
30339;BME280;795;49.296;11.348;2023-02-19T05:36:20;96644.19;;;7.00;100.00
30339;BME280;795;49.296;11.348;2023-02-19T05:38:52;96614.97;;;6.89;100.00
30339;BME280;795;49.296;11.348;2023-02-19T05:41:27;96631.13;;;7.07;100.00
30339;BME280;795;49.296;11.348;2023-02-19T05:43:55;96639.97;;;7.07;100.00
30339;BME280;795;49.296;11.348;2023-02-19T05:46:28;96606.53;;;6.94;100.00
30339;BME280;795;49.296;11.348;2023-02-19T05:48:56;96635.34;;;7.09;100.00
30339;BME280;795;49.296;11.348;2023-02-19T05:51:26;96634.34;;;7.10;100.00
30339;BME280;795;49.296;11.348;2023-02-19T05:53:54;96630.69;;;7.11;100.00
30339;BME280;795;49.296;11.348;2023-02-19T05:56:36;96638.84;;;7.10;100.00
30339;BME280;795;49.296;11.348;2023-02-19T05:59:19;96635.03;;;7.12;100.00
30339;BME280;795;49.296;11.348;2023-02-19T06:01:52;96639.41;;;7.13;100.00
30339;BME280;795;49.296;11.348;2023-02-19T06:04:20;96642.78;;;7.15;100.00
30339;BME280;795;49.296;11.348;2023-02-19T06:06:48;96632.09;;;7.15;100.00
30339;BME280;795;49.296;11.348;2023-02-19T06:09:16;96627.16;;;7.20;100.00
30339;BME280;795;49.296;11.348;2023-02-19T06:11:43;96618.03;;;7.13;100.00
30339;BME280;795;49.296;11.348;2023-02-19T06:14:13;96622.78;;;7.19;100.00
30339;BME280;795;49.296;11.348;2023-02-19T06:16:40;96584.91;;;7.06;100.00
30339;BME280;795;49.296;11.348;2023-02-19T06:19:08;96627.72;;;7.24;100.00
30339;BME280;795;49.296;11.348;2023-02-19T06:21:35;96632.75;;;7.27;100.00
30339;BME280;795;49.296;11.348;2023-02-19T06:24:08;96609.63;;;7.08;100.00
30339;BME280;795;49.296;11.348;2023-02-19T06:26:35;96641.50;;;7.19;100.00
30339;BME280;795;49.296;11.348;2023-02-19T06:29:03;96626.22;;;7.12;100.00
30339;BME280;795;49.296;11.348;2023-02-19T06:31:30;96622.81;;;7.00;100.00
30339;BME280;795;49.296;11.348;2023-02-19T06:33:57;96627.19;;;7.01;100.00
30339;BME280;795;49.296;11.348;2023-02-19T06:36:24;96632.38;;;7.03;100.00
30339;BME280;795;49.296;11.348;2023-02-19T06:38:51;96637.16;;;7.09;100.00
30339;BME280;795;49.296;11.348;2023-02-19T06:41:18;96643.91;;;7.03;100.00
30339;BME280;795;49.296;11.348;2023-02-19T06:43:45;96622.00;;;6.90;100.00
30339;BME280;795;49.296;11.348;2023-02-19T06:46:13;96665.53;;;7.10;100.00
30339;BME280;795;49.296;11.348;2023-02-19T06:48:42;96674.38;;;7.10;100.00
30339;BME280;795;49.296;11.348;2023-02-19T06:51:17;96679.72;;;7.10;100.00
30339;BME280;795;49.296;11.348;2023-02-19T06:53:45;96649.41;;;6.92;100.00
30339;BME280;795;49.296;11.348;2023-02-19T06:56:29;96672.84;;;7.17;100.00
30339;BME280;795;49.296;11.348;2023-02-19T06:59:01;96670.88;;;7.10;100.00
30339;BME280;795;49.296;11.348;2023-02-19T07:01:31;96686.19;;;7.17;100.00
30339;BME280;795;49.296;11.348;2023-02-19T07:04:01;96694.75;;;7.21;100.00
30339;BME280;795;49.296;11.348;2023-02-19T07:06:29;96683.25;;;7.20;100.00
30339;BME280;795;49.296;11.348;2023-02-19T07:08:58;96690.56;;;7.18;100.00
30339;BME280;795;49.296;11.348;2023-02-19T07:11:31;96692.94;;;7.21;100.00
30339;BME280;795;49.296;11.348;2023-02-19T07:14:03;96691.94;;;7.22;100.00
30339;BME280;795;49.296;11.348;2023-02-19T07:16:30;96680.16;;;7.15;100.00
30339;BME280;795;49.296;11.348;2023-02-19T07:18:59;96685.22;;;7.18;100.00
30339;BME280;795;49.296;11.348;2023-02-19T07:21:28;96660.50;;;6.97;100.00
30339;BME280;795;49.296;11.348;2023-02-19T07:23:56;96710.94;;;7.29;100.00
30339;BME280;795;49.296;11.348;2023-02-19T07:26:23;96659.91;;;7.03;100.00
30339;BME280;795;49.296;11.348;2023-02-19T07:28:51;96703.91;;;7.28;100.00
30339;BME280;795;49.296;11.348;2023-02-19T07:31:22;96704.44;;;7.31;100.00
30339;BME280;795;49.296;11.348;2023-02-19T07:33:49;96688.16;;;7.25;100.00
30339;BME280;795;49.296;11.348;2023-02-19T07:36:20;96696.72;;;7.38;100.00
30339;BME280;795;49.296;11.348;2023-02-19T07:38:57;96697.84;;;7.45;100.00
30339;BME280;795;49.296;11.348;2023-02-19T07:41:25;96691.50;;;7.46;100.00
30339;BME280;795;49.296;11.348;2023-02-19T07:43:53;96684.63;;;7.34;100.00
30339;BME280;795;49.296;11.348;2023-02-19T07:46:21;96693.44;;;7.54;100.00
30339;BME280;795;49.296;11.348;2023-02-19T07:48:48;96686.84;;;7.58;100.00
30339;BME280;795;49.296;11.348;2023-02-19T07:51:19;96704.25;;;7.71;100.00
30339;BME280;795;49.296;11.348;2023-02-19T07:53:50;96693.81;;;7.78;100.00
30339;BME280;795;49.296;11.348;2023-02-19T07:56:18;96703.38;;;7.80;100.00
30339;BME280;795;49.296;11.348;2023-02-19T07:58:45;96673.44;;;7.77;100.00
30339;BME280;795;49.296;11.348;2023-02-19T08:01:18;96654.44;;;7.70;100.00
30339;BME280;795;49.296;11.348;2023-02-19T08:04:06;96674.38;;;7.85;100.00
30339;BME280;795;49.296;11.348;2023-02-19T08:06:33;96679.88;;;7.84;100.00
30339;BME280;795;49.296;11.348;2023-02-19T08:08:59;96673.94;;;7.90;100.00
30339;BME280;795;49.296;11.348;2023-02-19T08:11:26;96653.28;;;7.82;100.00
30339;BME280;795;49.296;11.348;2023-02-19T08:14:12;96680.34;;;8.07;100.00
30339;BME280;795;49.296;11.348;2023-02-19T08:16:39;96681.34;;;8.06;100.00
30339;BME280;795;49.296;11.348;2023-02-19T08:19:09;96652.97;;;7.95;100.00
30339;BME280;795;49.296;11.348;2023-02-19T08:21:36;96676.25;;;8.12;100.00
30339;BME280;795;49.296;11.348;2023-02-19T08:24:03;96687.75;;;8.22;100.00
30339;BME280;795;49.296;11.348;2023-02-19T08:26:33;96676.81;;;8.16;100.00
30339;BME280;795;49.296;11.348;2023-02-19T08:29:03;96704.22;;;8.27;100.00
30339;BME280;795;49.296;11.348;2023-02-19T08:31:32;96684.66;;;8.27;100.00
30339;BME280;795;49.296;11.348;2023-02-19T08:33:59;96696.00;;;8.38;100.00
30339;BME280;795;49.296;11.348;2023-02-19T08:36:26;96694.47;;;8.36;100.00
30339;BME280;795;49.296;11.348;2023-02-19T08:38:53;96701.28;;;8.30;100.00
30339;BME280;795;49.296;11.348;2023-02-19T08:41:20;96681.97;;;8.27;100.00
30339;BME280;795;49.296;11.348;2023-02-19T08:43:47;96678.19;;;8.20;100.00
30339;BME280;795;49.296;11.348;2023-02-19T08:46:14;96686.63;;;8.25;100.00
30339;BME280;795;49.296;11.348;2023-02-19T08:48:42;96673.69;;;8.20;100.00
30339;BME280;795;49.296;11.348;2023-02-19T08:51:11;96714.88;;;8.37;100.00
30339;BME280;795;49.296;11.348;2023-02-19T08:53:40;96720.47;;;8.43;100.00
30339;BME280;795;49.296;11.348;2023-02-19T08:56:11;96716.72;;;8.36;100.00
30339;BME280;795;49.296;11.348;2023-02-19T08:58:39;96713.06;;;8.37;100.00
30339;BME280;795;49.296;11.348;2023-02-19T09:03:49;96743.63;;;8.25;100.00
30339;BME280;795;49.296;11.348;2023-02-19T09:06:21;96730.56;;;8.13;100.00
30339;BME280;795;49.296;11.348;2023-02-19T09:08:48;96746.19;;;8.17;100.00
30339;BME280;795;49.296;11.348;2023-02-19T09:11:15;96731.56;;;8.12;100.00
30339;BME280;795;49.296;11.348;2023-02-19T09:13:43;96740.38;;;8.22;100.00
30339;BME280;795;49.296;11.348;2023-02-19T09:16:11;96754.44;;;8.33;100.00
30339;BME280;795;49.296;11.348;2023-02-19T09:18:38;96742.50;;;8.37;100.00
30339;BME280;795;49.296;11.348;2023-02-19T09:21:06;96734.88;;;8.42;100.00
30339;BME280;795;49.296;11.348;2023-02-19T09:23:35;96755.63;;;8.58;100.00
30339;BME280;795;49.296;11.348;2023-02-19T09:26:05;96763.88;;;8.74;100.00
30339;BME280;795;49.296;11.348;2023-02-19T09:28:37;96758.75;;;8.81;100.00
30339;BME280;795;49.296;11.348;2023-02-19T09:31:14;96737.44;;;8.61;100.00
30339;BME280;795;49.296;11.348;2023-02-19T09:33:47;96763.00;;;8.74;100.00
30339;BME280;795;49.296;11.348;2023-02-19T09:36:16;96771.84;;;8.84;100.00
30339;BME280;795;49.296;11.348;2023-02-19T09:38:44;96762.50;;;8.88;100.00
30339;BME280;795;49.296;11.348;2023-02-19T09:41:30;96756.41;;;8.95;100.00
30339;BME280;795;49.296;11.348;2023-02-19T09:44:05;96790.75;;;9.00;100.00
30339;BME280;795;49.296;11.348;2023-02-19T09:46:49;96748.81;;;8.91;100.00
30339;BME280;795;49.296;11.348;2023-02-19T09:49:35;96784.50;;;9.09;100.00
30339;BME280;795;49.296;11.348;2023-02-19T09:52:24;96788.78;;;9.02;100.00
30339;BME280;795;49.296;11.348;2023-02-19T09:54:59;96778.56;;;8.88;100.00
30339;BME280;795;49.296;11.348;2023-02-19T09:57:32;96788.44;;;8.87;100.00
30339;BME280;795;49.296;11.348;2023-02-19T10:00:22;96773.22;;;8.60;100.00
30339;BME280;795;49.296;11.348;2023-02-19T10:03:04;96790.34;;;8.67;100.00
30339;BME280;795;49.296;11.348;2023-02-19T10:05:33;96786.16;;;8.65;100.00
30339;BME280;795;49.296;11.348;2023-02-19T10:08:08;96779.81;;;8.66;100.00
30339;BME280;795;49.296;11.348;2023-02-19T10:10:39;96789.56;;;8.85;100.00
30339;BME280;795;49.296;11.348;2023-02-19T10:13:34;96786.78;;;9.04;100.00
30339;BME280;795;49.296;11.348;2023-02-19T10:16:06;96801.00;;;9.04;100.00
30339;BME280;795;49.296;11.348;2023-02-19T10:18:41;96786.78;;;9.04;100.00
30339;BME280;795;49.296;11.348;2023-02-19T10:21:23;96783.34;;;9.11;100.00
30339;BME280;795;49.296;11.348;2023-02-19T10:23:58;96776.81;;;8.96;100.00
30339;BME280;795;49.296;11.348;2023-02-19T10:26:26;96779.41;;;9.15;100.00
30339;BME280;795;49.296;11.348;2023-02-19T10:28:54;96781.28;;;9.23;100.00
30339;BME280;795;49.296;11.348;2023-02-19T10:31:24;96776.78;;;9.06;100.00
30339;BME280;795;49.296;11.348;2023-02-19T10:33:58;96801.56;;;9.08;100.00
30339;BME280;795;49.296;11.348;2023-02-19T10:39:41;96798.69;;;8.92;100.00
30339;BME280;795;49.296;11.348;2023-02-19T10:42:21;96796.16;;;8.90;100.00
30339;BME280;795;49.296;11.348;2023-02-19T10:44:59;96814.69;;;9.01;100.00
30339;BME280;795;49.296;11.348;2023-02-19T10:47:30;96817.13;;;8.95;100.00
30339;BME280;795;49.296;11.348;2023-02-19T10:49:59;96801.22;;;8.66;100.00
30339;BME280;795;49.296;11.348;2023-02-19T10:52:34;96816.84;;;8.71;100.00
30339;BME280;795;49.296;11.348;2023-02-19T10:57:56;96822.88;;;8.73;100.00
30339;BME280;795;49.296;11.348;2023-02-19T11:00:29;96824.41;;;8.75;100.00
30339;BME280;795;49.296;11.348;2023-02-19T11:03:21;96810.19;;;8.75;100.00
30339;BME280;795;49.296;11.348;2023-02-19T11:06:01;96822.03;;;8.72;100.00
30339;BME280;795;49.296;11.348;2023-02-19T11:11:39;96804.91;;;8.28;100.00
30339;BME280;795;49.296;11.348;2023-02-19T11:14:33;96827.25;;;8.37;100.00
30339;BME280;795;49.296;11.348;2023-02-19T11:17:03;96812.19;;;8.26;100.00
30339;BME280;795;49.296;11.348;2023-02-19T11:19:42;96824.56;;;8.37;100.00
30339;BME280;795;49.296;11.348;2023-02-19T11:22:39;96843.03;;;8.30;100.00
30339;BME280;795;49.296;11.348;2023-02-19T11:25:20;96819.81;;;8.02;100.00
30339;BME280;795;49.296;11.348;2023-02-19T11:28:05;96841.50;;;8.09;100.00
30339;BME280;795;49.296;11.348;2023-02-19T11:30:41;96846.41;;;8.13;100.00
30339;BME280;795;49.296;11.348;2023-02-19T11:35:43;96819.22;;;8.37;100.00
30339;BME280;795;49.296;11.348;2023-02-19T11:38:15;96816.25;;;8.40;100.00
30339;BME280;795;49.296;11.348;2023-02-19T11:48:15;96837.06;;;8.46;100.00
30339;BME280;795;49.296;11.348;2023-02-19T11:51:29;96815.75;;;8.08;100.00
30339;BME280;795;49.296;11.348;2023-02-19T11:54:31;96874.00;;;8.14;100.00
30339;BME280;795;49.296;11.348;2023-02-19T12:00:25;96883.44;;;7.79;100.00
30339;BME280;795;49.296;11.348;2023-02-19T12:10:05;96903.69;;;7.63;100.00
30339;BME280;795;49.296;11.348;2023-02-19T12:12:55;96892.44;;;7.59;100.00
30339;BME280;795;49.296;11.348;2023-02-19T12:22:00;96915.09;;;7.74;100.00
30339;BME280;795;49.296;11.348;2023-02-19T12:25:18;96919.31;;;7.86;100.00
30339;BME280;795;49.296;11.348;2023-02-19T12:34:37;96902.00;;;8.19;100.00
30339;BME280;795;49.296;11.348;2023-02-19T12:37:46;96898.63;;;8.17;100.00
30339;BME280;795;49.296;11.348;2023-02-19T12:40:52;96898.34;;;8.30;100.00
30339;BME280;795;49.296;11.348;2023-02-19T12:43:23;96882.16;;;8.31;100.00
30339;BME280;795;49.296;11.348;2023-02-19T12:46:00;96856.09;;;8.24;100.00
30339;BME280;795;49.296;11.348;2023-02-19T12:54:16;96857.22;;;8.50;100.00
30339;BME280;795;49.296;11.348;2023-02-19T12:57:30;96874.31;;;8.76;100.00
30339;BME280;795;49.296;11.348;2023-02-19T13:03:10;96882.44;;;8.38;100.00
30339;BME280;795;49.296;11.348;2023-02-19T13:06:06;96880.19;;;8.33;100.00
30339;BME280;795;49.296;11.348;2023-02-19T13:09:12;96875.25;;;8.38;100.00
30339;BME280;795;49.296;11.348;2023-02-19T13:11:58;96857.25;;;8.40;100.00
30339;BME280;795;49.296;11.348;2023-02-19T13:14:44;96854.91;;;8.64;100.00
30339;BME280;795;49.296;11.348;2023-02-19T13:17:41;96863.03;;;8.73;100.00
30339;BME280;795;49.296;11.348;2023-02-19T13:20:34;96862.63;;;8.67;100.00
30339;BME280;795;49.296;11.348;2023-02-19T13:23:25;96819.31;;;8.54;100.00
30339;BME280;795;49.296;11.348;2023-02-19T13:26:47;96831.78;;;9.00;100.00
30339;BME280;795;49.296;11.348;2023-02-19T13:35:15;96848.59;;;8.93;100.00
30339;BME280;795;49.296;11.348;2023-02-19T13:37:48;96826.41;;;8.73;100.00
30339;BME280;795;49.296;11.348;2023-02-19T13:40:32;96830.00;;;8.82;100.00
30339;BME280;795;49.296;11.348;2023-02-19T13:43:06;96846.19;;;8.90;100.00
30339;BME280;795;49.296;11.348;2023-02-19T13:45:43;96844.28;;;9.09;100.00
30339;BME280;795;49.296;11.348;2023-02-19T13:54:12;96821.78;;;8.65;100.00
30339;BME280;795;49.296;11.348;2023-02-19T13:56:40;96842.56;;;8.44;100.00
30339;BME280;795;49.296;11.348;2023-02-19T13:59:36;96882.28;;;8.20;100.00
30339;BME280;795;49.296;11.348;2023-02-19T14:02:25;96881.47;;;8.00;100.00
30339;BME280;795;49.296;11.348;2023-02-19T14:05:02;96901.31;;;8.08;100.00
30339;BME280;795;49.296;11.348;2023-02-19T14:07:53;96909.47;;;8.25;100.00
30339;BME280;795;49.296;11.348;2023-02-19T14:10:54;96891.47;;;8.27;100.00
30339;BME280;795;49.296;11.348;2023-02-19T14:21:59;96875.00;;;8.03;100.00
30339;BME280;795;49.296;11.348;2023-02-19T14:24:27;96910.00;;;8.19;100.00
30339;BME280;795;49.296;11.348;2023-02-19T14:26:56;96907.91;;;8.23;100.00
30339;BME280;795;49.296;11.348;2023-02-19T14:29:23;96887.38;;;8.23;100.00
30339;BME280;795;49.296;11.348;2023-02-19T14:31:50;96909.03;;;8.39;100.00
30339;BME280;795;49.296;11.348;2023-02-19T14:34:23;96897.38;;;8.40;100.00
30339;BME280;795;49.296;11.348;2023-02-19T14:36:57;96898.34;;;8.20;100.00
30339;BME280;795;49.296;11.348;2023-02-19T14:39:33;96898.06;;;8.14;100.00
30339;BME280;795;49.296;11.348;2023-02-19T14:42:25;96933.81;;;8.22;100.00
30339;BME280;795;49.296;11.348;2023-02-19T14:45:05;96946.22;;;8.23;100.00
30339;BME280;795;49.296;11.348;2023-02-19T14:47:35;96937.44;;;8.21;100.00
30339;BME280;795;49.296;11.348;2023-02-19T14:50:26;96893.84;;;7.82;100.00
30339;BME280;795;49.296;11.348;2023-02-19T14:53:00;96945.63;;;8.00;100.00
30339;BME280;795;49.296;11.348;2023-02-19T14:55:34;96914.81;;;7.87;100.00
30339;BME280;795;49.296;11.348;2023-02-19T14:58:13;96941.41;;;8.08;100.00
30339;BME280;795;49.296;11.348;2023-02-19T15:00:42;96947.19;;;8.13;100.00
30339;BME280;795;49.296;11.348;2023-02-19T15:03:34;96953.22;;;8.15;100.00
30339;BME280;795;49.296;11.348;2023-02-19T15:06:12;96947.19;;;8.13;100.00
30339;BME280;795;49.296;11.348;2023-02-19T15:08:50;96939.44;;;8.10;100.00
30339;BME280;795;49.296;11.348;2023-02-19T15:11:23;96965.38;;;8.28;100.00
30339;BME280;795;49.296;11.348;2023-02-19T15:14:01;96954.25;;;8.14;100.00
30339;BME280;795;49.296;11.348;2023-02-19T15:16:33;96960.72;;;8.11;100.00
30339;BME280;795;49.296;11.348;2023-02-19T15:19:08;96965.47;;;8.17;100.00
30339;BME280;795;49.296;11.348;2023-02-19T15:21:45;96936.06;;;8.08;100.00
30339;BME280;795;49.296;11.348;2023-02-19T15:24:17;96946.75;;;8.08;100.00
30339;BME280;795;49.296;11.348;2023-02-19T15:26:50;96971.84;;;8.26;100.00
30339;BME280;795;49.296;11.348;2023-02-19T15:29:24;96964.78;;;8.25;100.00
30339;BME280;795;49.296;11.348;2023-02-19T15:32:00;96958.03;;;8.21;100.00